Terminal Aerodrome Forecast
Issued by NWS Austin/San Antonio, TX

Home | Current Version | Previous Version | Text Only | Print | Product List | Glossary On
Versions: 1 2 3 4 5 6 7 8 9 10 11 12 13 14 15 16 17 18 19 20 21 22 23 24 25 26
000
FTUS44 KEWX 210525
TAFAUS
TAF
KAUS 210525Z 2106/2212 12003KT P6SM BKN200
     FM211100 09002KT P6SM BKN150
     FM211700 13010KT P6SM BKN030 BKN150
     FM211800 13010KT P6SM OVC035
     FM220600 16004KT 4SM BR OVC015=

USA.gov is the U.S. government's official web portal to all federal, state and local government web resources and services.